createdAt,value
2023-07-11T00:01:34.548Z,3.80
2023-07-11T00:04:02.379Z,6.20
2023-07-11T00:06:30.283Z,4.23
2023-07-11T00:08:57.933Z,4.07
2023-07-11T00:11:26.053Z,4.33
2023-07-11T00:13:55.097Z,3.00
2023-07-11T00:16:24.412Z,3.13
2023-07-11T00:18:52.145Z,2.80
2023-07-11T00:21:19.915Z,3.30
2023-07-11T00:23:47.651Z,4.17
2023-07-11T00:26:15.369Z,4.80
2023-07-11T00:28:43.072Z,3.37
2023-07-11T00:31:11.033Z,3.90
2023-07-11T00:33:40.173Z,4.23
2023-07-11T00:36:08.673Z,4.37
2023-07-11T00:38:36.568Z,4.20
2023-07-11T00:41:05.115Z,4.40
2023-07-11T00:43:32.828Z,3.97
2023-07-11T00:46:05.825Z,4.70
2023-07-11T00:48:37.090Z,4.50
2023-07-11T00:51:08.049Z,4.50
2023-07-11T00:53:36.664Z,4.57
2023-07-11T00:56:07.470Z,5.47
2023-07-11T00:58:39.549Z,4.37
2023-07-11T01:01:07.661Z,4.20
2023-07-11T01:03:35.857Z,5.33
2023-07-11T01:06:03.667Z,4.73
2023-07-11T01:08:32.804Z,4.00
2023-07-11T01:11:00.745Z,4.43
2023-07-11T01:13:28.656Z,5.00
2023-07-11T01:15:56.400Z,4.60
2023-07-11T01:18:24.332Z,3.43
2023-07-11T01:20:52.013Z,5.07
2023-07-11T01:23:21.720Z,4.03
2023-07-11T01:25:49.707Z,5.57
2023-07-11T01:28:19.000Z,4.57
2023-07-11T01:30:46.676Z,4.20
2023-07-11T01:33:14.555Z,4.80
2023-07-11T01:35:43.813Z,5.80
2023-07-11T01:38:11.661Z,5.97
2023-07-11T01:40:40.707Z,5.27
2023-07-11T01:43:09.603Z,4.37
2023-07-11T01:45:37.413Z,4.77
2023-07-11T01:48:05.356Z,6.10
2023-07-11T01:50:33.058Z,5.60
2023-07-11T01:53:00.719Z,5.27
2023-07-11T01:55:28.547Z,4.20
2023-07-11T01:57:57.548Z,5.10
2023-07-11T02:00:25.447Z,5.03
2023-07-11T02:02:53.516Z,4.77
2023-07-11T02:05:22.879Z,3.63
2023-07-11T02:07:51.558Z,4.90
2023-07-11T02:10:19.438Z,5.03
2023-07-11T02:12:47.109Z,4.83
2023-07-11T02:15:16.534Z,5.23
2023-07-11T02:17:45.679Z,5.03
2023-07-11T02:20:13.787Z,4.57
2023-07-11T02:22:42.246Z,4.87
2023-07-11T02:25:10.628Z,4.20
2023-07-11T02:27:38.410Z,4.50
2023-07-11T02:30:07.311Z,5.17
2023-07-11T02:32:36.338Z,4.50
2023-07-11T02:35:04.312Z,3.93
2023-07-11T02:37:31.953Z,5.87
2023-07-11T02:39:59.611Z,4.97
2023-07-11T02:42:27.275Z,5.43
2023-07-11T02:44:54.952Z,4.57
2023-07-11T02:47:22.629Z,4.90
2023-07-11T02:49:51.634Z,5.53
2023-07-11T02:52:19.404Z,6.87
2023-07-11T02:54:47.074Z,5.47
2023-07-11T02:57:14.861Z,7.73
2023-07-11T02:59:42.685Z,6.67
2023-07-11T03:02:10.340Z,6.40
2023-07-11T03:04:38.030Z,5.67
2023-07-11T03:07:07.850Z,6.20
2023-07-11T03:09:36.020Z,6.87
2023-07-11T03:12:04.000Z,5.67
2023-07-11T03:14:31.719Z,5.20
2023-07-11T03:16:59.530Z,5.40
2023-07-11T03:19:27.309Z,7.23
2023-07-11T03:21:55.086Z,5.23
2023-07-11T03:24:24.134Z,7.53
2023-07-11T03:26:51.895Z,5.30
2023-07-11T03:29:19.522Z,4.97
2023-07-11T03:31:47.387Z,7.00
2023-07-11T03:34:15.068Z,7.47
2023-07-11T03:36:43.735Z,8.07
2023-07-11T03:39:11.391Z,7.40
2023-07-11T03:41:40.531Z,7.47
2023-07-11T03:44:08.209Z,6.93
2023-07-11T03:46:35.852Z,5.73
2023-07-11T03:49:04.003Z,5.03
2023-07-11T03:51:31.846Z,5.70
2023-07-11T03:53:59.763Z,8.90
2023-07-11T03:56:28.432Z,6.93
2023-07-11T03:58:57.810Z,6.57
2023-07-11T04:01:25.780Z,6.77
2023-07-11T04:03:54.083Z,7.57
2023-07-11T04:06:21.731Z,8.00
2023-07-11T04:08:49.832Z,6.27
2023-07-11T04:11:17.509Z,7.03
2023-07-11T04:13:45.277Z,6.77
2023-07-11T04:16:14.466Z,8.40
2023-07-11T04:18:42.456Z,8.13
2023-07-11T04:21:10.148Z,8.03
2023-07-11T04:23:37.813Z,8.63
2023-07-11T04:26:05.792Z,7.13
2023-07-11T04:28:33.606Z,7.33
2023-07-11T04:31:01.365Z,8.27
2023-07-11T04:33:30.527Z,7.33
2023-07-11T04:36:09.278Z,7.17
2023-07-11T04:38:37.357Z,5.40
2023-07-11T04:41:05.915Z,7.07
2023-07-11T04:43:34.886Z,7.73
2023-07-11T04:46:03.470Z,8.40
2023-07-11T04:48:32.852Z,7.50
2023-07-11T04:51:04.075Z,7.70
2023-07-11T04:53:33.448Z,8.50
2023-07-11T04:56:02.825Z,7.00
2023-07-11T04:58:31.302Z,6.20
2023-07-11T05:01:01.512Z,7.67
2023-07-11T05:03:29.554Z,8.90
2023-07-11T05:05:59.521Z,7.70
2023-07-11T05:08:27.579Z,8.53
2023-07-11T05:11:02.646Z,7.70
2023-07-11T05:13:31.020Z,7.30
2023-07-11T05:16:02.325Z,7.73
2023-07-11T05:18:30.487Z,7.30
2023-07-11T05:21:00.630Z,8.53
2023-07-11T05:23:29.766Z,8.83
2023-07-11T05:25:58.048Z,9.07
2023-07-11T05:28:27.107Z,7.40
2023-07-11T05:30:55.375Z,6.50
2023-07-11T05:33:23.305Z,7.43
2023-07-11T05:36:00.679Z,7.10
2023-07-11T05:38:29.676Z,8.43
2023-07-11T05:40:58.479Z,7.73
2023-07-11T05:43:26.172Z,8.20
2023-07-11T05:45:53.917Z,8.17
2023-07-11T05:48:21.672Z,7.57
2023-07-11T05:50:59.141Z,7.17
2023-07-11T05:53:28.977Z,7.00
2023-07-11T05:55:59.432Z,5.93
2023-07-11T05:58:27.974Z,6.33
2023-07-11T06:00:56.234Z,6.80
2023-07-11T06:03:25.823Z,7.33
2023-07-11T06:05:54.326Z,6.67
2023-07-11T06:08:22.433Z,6.93
2023-07-11T06:10:50.104Z,4.73
2023-07-11T06:13:19.164Z,6.30
2023-07-11T06:15:46.836Z,7.40
2023-07-11T06:18:14.644Z,6.73
2023-07-11T06:20:42.321Z,5.87
2023-07-11T06:23:09.949Z,5.87
2023-07-11T06:25:37.586Z,5.57
2023-07-11T06:28:05.824Z,5.43
2023-07-11T06:30:34.946Z,5.10
2023-07-11T06:33:02.656Z,7.37
2023-07-11T06:35:30.449Z,5.30
2023-07-11T06:37:58.843Z,5.50
2023-07-11T06:40:26.709Z,4.40
2023-07-11T06:42:54.406Z,5.88
2023-07-11T06:45:22.254Z,3.92
2023-07-11T06:47:51.377Z,4.70
2023-07-11T06:50:19.881Z,4.30
2023-07-11T06:52:48.018Z,4.88
2023-07-11T06:55:15.960Z,4.70
2023-07-11T06:57:43.613Z,4.15
2023-07-11T07:00:13.456Z,4.88
2023-07-11T07:02:41.412Z,5.03
2023-07-11T07:05:11.211Z,3.63
2023-07-11T07:07:38.868Z,5.30
2023-07-11T07:10:07.919Z,3.78
2023-07-11T07:12:35.593Z,4.10
2023-07-11T07:15:03.536Z,4.30
2023-07-11T07:17:31.208Z,4.38
2023-07-11T07:19:58.969Z,4.55
2023-07-11T07:22:28.077Z,4.43
2023-07-11T07:24:55.851Z,4.65
2023-07-11T07:27:28.536Z,3.95
2023-07-11T07:29:57.006Z,4.70
2023-07-11T07:32:24.703Z,5.45
2023-07-11T07:34:52.592Z,4.38
2023-07-11T07:37:20.219Z,4.55
2023-07-11T07:39:49.310Z,4.35
2023-07-11T07:42:17.424Z,4.70
2023-07-11T07:44:45.168Z,4.07
2023-07-11T07:47:12.817Z,3.35
2023-07-11T07:49:53.873Z,3.38
2023-07-11T07:52:22.584Z,3.50
2023-07-11T07:54:51.717Z,4.28
2023-07-11T07:57:19.542Z,3.22
2023-07-11T07:59:47.207Z,3.28
2023-07-11T08:02:14.854Z,3.53
2023-07-11T08:04:42.581Z,4.47
2023-07-11T08:07:10.302Z,3.78
2023-07-11T08:09:37.930Z,3.45
2023-07-11T08:12:11.678Z,3.65
2023-07-11T08:14:40.320Z,3.90
2023-07-11T08:17:09.148Z,3.90
2023-07-11T08:19:36.923Z,4.35
2023-07-11T08:22:05.219Z,3.50
2023-07-11T08:24:33.431Z,4.53
2023-07-11T08:27:01.188Z,4.70
2023-07-11T08:29:30.813Z,4.35
2023-07-11T08:31:59.452Z,3.97
2023-07-11T08:34:27.352Z,4.35
2023-07-11T08:36:55.184Z,3.72
2023-07-11T08:39:22.980Z,4.75
2023-07-11T08:41:52.740Z,4.90
2023-07-11T08:44:28.575Z,3.78
2023-07-11T08:47:05.350Z,3.92
2023-07-11T08:49:39.638Z,5.60
2023-07-11T08:52:11.568Z,6.28
2023-07-11T08:54:47.138Z,4.80
2023-07-11T08:57:18.315Z,5.78
2023-07-11T08:59:56.218Z,5.05
2023-07-11T09:02:34.977Z,5.75
2023-07-11T09:05:05.423Z,5.47
2023-07-11T09:07:38.622Z,4.30
2023-07-11T09:10:42.854Z,4.47
2023-07-11T09:13:44.922Z,5.22
2023-07-11T09:16:36.369Z,4.90
2023-07-11T09:19:16.738Z,5.72
2023-07-11T09:21:54.389Z,5.90
2023-07-11T09:24:33.251Z,4.50
2023-07-11T09:27:05.411Z,5.03
2023-07-11T09:29:34.488Z,4.13
2023-07-11T09:32:06.196Z,5.47
2023-07-11T09:34:37.887Z,4.53
2023-07-11T09:37:14.797Z,5.18
2023-07-11T09:39:49.917Z,4.75
2023-07-11T09:42:39.473Z,5.60
2023-07-11T09:45:12.487Z,5.45
2023-07-11T09:47:42.329Z,5.43
2023-07-11T09:50:39.289Z,5.40
2023-07-11T09:53:14.439Z,5.28
2023-07-11T09:55:42.756Z,4.90
2023-07-11T09:58:16.310Z,5.95
2023-07-11T10:00:46.757Z,4.75
2023-07-11T10:03:17.195Z,5.30
2023-07-11T10:05:49.209Z,4.85
2023-07-11T10:08:20.412Z,4.97
2023-07-11T10:10:49.826Z,5.03
2023-07-11T10:13:25.613Z,6.65
2023-07-11T10:16:01.514Z,6.20
2023-07-11T10:18:31.591Z,5.15
2023-07-11T10:21:08.467Z,4.00
2023-07-11T10:23:37.471Z,5.00
2023-07-11T10:26:09.432Z,5.28
2023-07-11T10:28:40.457Z,4.40
2023-07-11T10:31:13.112Z,6.30
2023-07-11T10:33:55.045Z,5.97
2023-07-11T10:36:31.804Z,5.35
2023-07-11T10:39:02.598Z,5.32
2023-07-11T10:41:34.359Z,5.15
2023-07-11T10:44:04.668Z,4.53
2023-07-11T10:46:38.153Z,4.70
2023-07-11T10:49:11.045Z,5.25
2023-07-11T10:51:47.835Z,6.05
2023-07-11T10:54:23.434Z,5.47
2023-07-11T10:56:57.692Z,4.82
2023-07-11T10:59:29.400Z,3.92
2023-07-11T11:02:05.688Z,5.45
2023-07-11T11:05:01.186Z,4.53
2023-07-11T11:07:35.855Z,5.15
2023-07-11T11:10:13.166Z,3.95
2023-07-11T11:12:45.069Z,6.60
2023-07-11T11:15:30.170Z,4.93
2023-07-11T11:18:10.635Z,4.82
2023-07-11T11:23:32.972Z,5.10
2023-07-11T11:26:16.163Z,4.63
2023-07-11T11:28:57.174Z,3.83
2023-07-11T11:31:26.824Z,4.93
2023-07-11T11:34:09.622Z,5.85
2023-07-11T11:37:00.134Z,4.55
2023-07-11T11:39:44.602Z,4.50
2023-07-11T11:42:21.875Z,5.00
2023-07-11T11:52:44.648Z,5.03
2023-07-11T11:55:34.541Z,4.68
2023-07-11T11:58:02.857Z,4.45
2023-07-11T12:00:42.099Z,5.80
2023-07-11T12:03:22.441Z,4.57
2023-07-11T12:05:53.530Z,4.78
2023-07-11T12:08:39.638Z,4.60
2023-07-11T12:11:30.124Z,6.20
2023-07-11T12:14:22.163Z,4.32
2023-07-11T12:16:51.706Z,4.90
2023-07-11T12:19:31.370Z,4.68
2023-07-11T12:22:02.821Z,4.53
2023-07-11T12:25:00.464Z,4.47
2023-07-11T12:27:58.750Z,4.75
2023-07-11T12:30:43.866Z,4.65
2023-07-11T12:33:37.354Z,5.13
2023-07-11T12:36:38.757Z,5.38
2023-07-11T12:39:18.404Z,4.50
2023-07-11T12:41:55.828Z,4.85
2023-07-11T12:44:23.752Z,5.00
2023-07-11T12:46:53.974Z,5.60
2023-07-11T12:49:26.736Z,5.30
2023-07-11T12:52:05.298Z,4.70
2023-07-11T12:54:33.059Z,4.40
2023-07-11T12:57:00.851Z,4.32
2023-07-11T12:59:30.822Z,4.93
2023-07-11T13:02:02.633Z,5.38
2023-07-11T13:04:36.212Z,4.70
2023-07-11T13:07:06.518Z,3.50
2023-07-11T13:09:46.144Z,4.15
2023-07-11T13:12:18.796Z,5.35
2023-07-11T13:14:48.534Z,5.03
2023-07-11T13:17:20.288Z,4.57
2023-07-11T13:19:49.689Z,4.13
2023-07-11T13:22:19.947Z,4.75
2023-07-11T13:24:48.892Z,4.63
2023-07-11T13:27:19.275Z,5.07
2023-07-11T13:29:46.950Z,4.88
2023-07-11T13:32:20.189Z,4.18
2023-07-11T13:34:52.534Z,4.22
2023-07-11T13:37:25.929Z,4.45
2023-07-11T13:39:53.945Z,5.45
2023-07-11T13:42:25.303Z,4.25
2023-07-11T13:44:54.893Z,5.75
2023-07-11T13:47:26.295Z,4.63
2023-07-11T13:50:16.810Z,4.15
2023-07-11T13:52:50.496Z,3.28
2023-07-11T13:55:23.190Z,3.72
2023-07-11T13:57:51.922Z,3.30
2023-07-11T14:00:23.618Z,3.75
2023-07-11T14:02:54.612Z,3.65
2023-07-11T14:05:24.424Z,4.35
2023-07-11T14:07:54.198Z,4.10
2023-07-11T14:10:24.466Z,3.25
2023-07-11T14:12:52.658Z,3.45
2023-07-11T14:15:22.943Z,3.85
2023-07-11T14:17:52.279Z,4.22
2023-07-11T14:20:26.304Z,4.60
2023-07-11T14:22:54.507Z,3.90
2023-07-11T14:25:24.320Z,5.68
2023-07-11T14:27:52.856Z,5.85
2023-07-11T14:30:21.225Z,5.03
2023-07-11T14:32:49.775Z,5.05
2023-07-11T14:35:19.398Z,4.03
2023-07-11T14:37:49.418Z,4.63
2023-07-11T14:40:18.322Z,4.78
2023-07-11T14:42:46.652Z,4.38
2023-07-11T14:45:18.018Z,4.30
2023-07-11T14:47:47.352Z,4.78
2023-07-11T14:50:17.085Z,4.15
2023-07-11T14:52:45.652Z,3.70
2023-07-11T15:00:22.918Z,4.05
2023-07-11T15:02:51.757Z,4.40
2023-07-11T15:10:26.299Z,4.93
2023-07-11T15:15:28.085Z,4.90
2023-07-11T15:17:55.882Z,4.82
2023-07-11T15:20:24.899Z,3.85
2023-07-11T15:22:54.505Z,4.28
2023-07-11T15:25:29.987Z,4.03
2023-07-11T15:27:58.432Z,3.55
2023-07-11T15:30:26.750Z,3.83
2023-07-11T15:32:54.672Z,3.60
2023-07-11T15:35:24.171Z,3.35
2023-07-11T15:37:53.683Z,3.55
2023-07-11T15:40:23.916Z,3.50
2023-07-11T15:42:54.459Z,3.90
2023-07-11T15:45:24.696Z,3.97
2023-07-11T15:47:53.262Z,4.30
2023-07-11T15:50:23.526Z,3.47
2023-07-11T15:52:51.862Z,4.03
2023-07-11T15:55:21.981Z,4.10
2023-07-11T15:57:51.301Z,3.20
2023-07-11T16:00:22.244Z,3.92
2023-07-11T16:02:50.635Z,2.97
2023-07-11T16:05:19.072Z,2.60
2023-07-11T16:07:47.864Z,4.28
2023-07-11T16:10:18.619Z,3.50
2023-07-11T16:12:46.880Z,4.32
2023-07-11T16:15:14.980Z,3.42
2023-07-11T16:17:47.783Z,3.65
2023-07-11T16:20:21.850Z,3.08
2023-07-11T16:22:49.945Z,3.55
2023-07-11T16:25:21.537Z,3.03
2023-07-11T16:27:54.637Z,4.78
2023-07-11T16:30:24.204Z,3.63
2023-07-11T16:32:54.535Z,3.33
2023-07-11T16:35:27.786Z,3.33
2023-07-11T16:38:02.734Z,4.53
2023-07-11T16:40:31.855Z,3.97
2023-07-11T16:42:59.660Z,4.03
2023-07-11T16:45:32.482Z,3.17
2023-07-11T16:48:01.567Z,4.85
2023-07-11T16:50:30.289Z,4.55
2023-07-11T16:53:00.804Z,4.10
2023-07-11T16:55:29.417Z,4.00
2023-07-11T16:57:57.135Z,4.07
2023-07-11T17:00:27.143Z,4.53
2023-07-11T17:02:55.351Z,3.80
2023-07-11T17:05:27.818Z,4.18
2023-07-11T17:07:56.294Z,3.92
2023-07-11T17:10:24.233Z,3.88
2023-07-11T17:12:51.878Z,3.85
2023-07-11T17:15:20.592Z,4.95
2023-07-11T17:17:48.334Z,4.68
2023-07-11T17:20:18.962Z,3.90
2023-07-11T17:22:47.932Z,4.70
2023-07-11T17:25:18.986Z,3.90
2023-07-11T17:27:48.784Z,5.28
2023-07-11T17:30:18.679Z,4.50
2023-07-11T17:32:47.581Z,4.82
2023-07-11T17:35:16.713Z,4.40
2023-07-11T17:37:47.969Z,4.90
2023-07-11T17:40:22.364Z,4.60
2023-07-11T17:42:50.596Z,4.40
2023-07-11T17:45:39.873Z,4.18
2023-07-11T17:48:17.264Z,5.15
2023-07-11T17:50:46.650Z,3.78
2023-07-11T17:53:14.592Z,4.72
2023-07-11T17:55:45.268Z,5.32
2023-07-11T17:58:22.520Z,4.53
2023-07-11T18:00:51.202Z,4.43
2023-07-11T18:03:19.278Z,3.47
2023-07-11T18:05:48.230Z,3.20
2023-07-11T18:08:17.294Z,3.80
2023-07-11T18:10:47.760Z,2.97
2023-07-11T18:13:15.926Z,2.72
2023-07-11T18:15:46.020Z,3.53
2023-07-11T18:18:23.138Z,3.97
2023-07-11T18:20:51.400Z,2.42
2023-07-11T18:23:19.088Z,2.90
2023-07-11T18:25:49.234Z,2.40
2023-07-11T18:28:18.910Z,2.63
2023-07-11T18:30:46.933Z,2.70
2023-07-11T18:33:14.950Z,2.78
2023-07-11T18:35:43.826Z,2.55
2023-07-11T18:38:17.068Z,3.70
2023-07-11T18:40:46.167Z,2.65
2023-07-11T18:43:15.342Z,3.38
2023-07-11T18:45:46.752Z,3.13
2023-07-11T18:48:15.088Z,3.53
2023-07-11T18:50:44.141Z,5.00
2023-07-11T18:53:12.163Z,4.55
2023-07-11T18:55:44.529Z,3.58
2023-07-11T18:58:12.607Z,3.53
2023-07-11T19:00:45.288Z,3.75
2023-07-11T19:03:14.356Z,2.95
2023-07-11T19:05:42.239Z,3.92
2023-07-11T19:08:18.842Z,3.55
2023-07-11T19:10:46.979Z,3.28
2023-07-11T19:13:15.291Z,4.32
2023-07-11T19:15:46.588Z,4.68
2023-07-11T19:18:18.268Z,5.28
2023-07-11T19:20:46.256Z,5.07
2023-07-11T19:23:17.246Z,5.05
2023-07-11T19:25:47.776Z,4.18
2023-07-11T19:28:17.216Z,5.60
2023-07-11T19:30:48.275Z,4.45
2023-07-11T19:33:17.050Z,4.38
2023-07-11T19:35:50.516Z,4.03
2023-07-11T19:38:20.348Z,4.82
2023-07-11T19:40:48.375Z,5.97
2023-07-11T19:43:16.490Z,5.63
2023-07-11T19:45:48.193Z,5.13
2023-07-11T19:48:18.129Z,4.00
2023-07-11T19:50:48.117Z,5.05
2023-07-11T19:53:18.511Z,5.85
2023-07-11T19:55:47.602Z,3.85
2023-07-11T19:58:18.600Z,6.68
2023-07-11T20:00:49.557Z,5.50
2023-07-11T20:03:17.554Z,5.05
2023-07-11T20:05:47.962Z,4.30
2023-07-11T20:08:19.171Z,5.53
2023-07-11T20:10:49.272Z,5.50
2023-07-11T20:13:19.208Z,4.75
2023-07-11T20:15:50.378Z,4.13
2023-07-11T20:18:21.691Z,4.68
2023-07-11T20:20:51.789Z,5.43
2023-07-11T20:23:20.082Z,3.97
2023-07-11T20:25:53.233Z,3.65
2023-07-11T20:28:22.689Z,4.60
2023-07-11T20:30:54.028Z,3.05
2023-07-11T20:33:22.251Z,3.78
2023-07-11T20:35:52.546Z,5.55
2023-07-11T20:38:22.408Z,4.25
2023-07-11T20:40:51.413Z,3.60
2023-07-11T20:43:20.092Z,4.30
2023-07-11T20:45:49.633Z,4.68
2023-07-11T20:48:20.832Z,4.97
2023-07-11T20:50:49.387Z,4.15
2023-07-11T20:53:17.415Z,4.40
2023-07-11T20:55:48.419Z,4.18
2023-07-11T20:58:17.501Z,3.53
2023-07-11T21:00:46.525Z,5.25
2023-07-11T21:03:16.025Z,4.60
2023-07-11T21:05:47.145Z,4.22
2023-07-11T21:08:25.718Z,6.47
2023-07-11T21:10:54.293Z,5.43
2023-07-11T21:13:22.397Z,6.80
2023-07-11T21:15:50.638Z,3.55
2023-07-11T21:18:20.303Z,3.70
2023-07-11T21:20:50.913Z,3.30
2023-07-11T21:23:18.693Z,2.40
2023-07-11T21:25:46.971Z,4.33
2023-07-11T21:28:26.747Z,1.90
2023-07-11T21:30:55.644Z,2.40
2023-07-11T21:33:24.124Z,3.30
2023-07-11T21:35:53.814Z,2.23
2023-07-11T21:38:24.260Z,2.30
2023-07-11T21:40:52.989Z,1.87
2023-07-11T21:43:20.684Z,2.53
2023-07-11T21:45:48.426Z,2.43
2023-07-11T21:48:21.582Z,2.53
2023-07-11T21:50:54.400Z,1.80
2023-07-11T21:53:24.129Z,1.90
2023-07-11T21:55:55.833Z,1.63
2023-07-11T21:58:25.898Z,1.83
2023-07-11T22:00:54.754Z,1.50
2023-07-11T22:03:23.928Z,2.57
2023-07-11T22:05:54.969Z,2.57
2023-07-11T22:08:25.016Z,1.00
2023-07-11T22:10:53.050Z,2.20
2023-07-11T22:13:22.329Z,1.53
2023-07-11T22:15:50.671Z,2.13
2023-07-11T22:18:21.591Z,2.40
2023-07-11T22:20:49.778Z,2.63
2023-07-11T22:23:19.016Z,2.67
2023-07-11T22:25:47.372Z,2.43
2023-07-11T22:28:17.231Z,3.10
2023-07-11T22:30:46.337Z,2.17
2023-07-11T22:33:15.893Z,1.50
2023-07-11T22:35:43.699Z,1.73
2023-07-11T22:38:14.377Z,2.00
2023-07-11T22:40:45.496Z,2.57
2023-07-11T22:43:15.176Z,4.27
2023-07-11T22:45:45.663Z,1.70
2023-07-11T22:48:16.093Z,2.23
2023-07-11T22:50:47.058Z,1.50
2023-07-11T22:53:16.931Z,1.63
2023-07-11T22:55:50.580Z,1.60
2023-07-11T22:58:23.229Z,3.73
2023-07-11T23:00:51.286Z,1.63
2023-07-11T23:03:19.430Z,2.00
2023-07-11T23:05:48.373Z,1.93
2023-07-11T23:08:17.529Z,1.43
2023-07-11T23:10:46.785Z,1.93
2023-07-11T23:13:14.487Z,1.67
2023-07-11T23:15:50.599Z,2.97
2023-07-11T23:18:20.954Z,2.20
2023-07-11T23:20:52.837Z,1.60
2023-07-11T23:23:21.322Z,2.00
2023-07-11T23:25:50.471Z,2.73
2023-07-11T23:28:24.624Z,1.73
2023-07-11T23:30:53.395Z,2.10
2023-07-11T23:33:21.705Z,1.70
2023-07-11T23:35:49.645Z,1.57
2023-07-11T23:38:17.628Z,2.23
2023-07-11T23:40:46.589Z,1.73
2023-07-11T23:43:19.237Z,1.43
2023-07-11T23:45:49.206Z,1.57
2023-07-11T23:48:20.364Z,1.33
2023-07-11T23:50:50.199Z,1.80
2023-07-11T23:53:20.805Z,1.90
2023-07-11T23:55:50.158Z,1.23
2023-07-11T23:58:23.273Z,1.23
